createdAt,value
2022-12-23T00:01:57.330Z,0.10
2022-12-23T00:04:25.196Z,0.16
2022-12-23T00:06:52.522Z,0.14
2022-12-23T00:09:19.751Z,0.10
2022-12-23T00:12:07.027Z,0.12
2022-12-23T00:14:52.817Z,0.13
2022-12-23T00:17:22.956Z,0.15
2022-12-23T00:19:50.613Z,0.18
2022-12-23T00:22:18.120Z,0.18
2022-12-23T00:24:45.396Z,0.22
2022-12-23T00:27:14.178Z,0.24
2022-12-23T00:29:41.745Z,0.21
2022-12-23T00:32:09.270Z,0.20
2022-12-23T00:34:36.583Z,0.20
2022-12-23T00:37:03.900Z,0.18
2022-12-23T00:39:54.732Z,0.11
2022-12-23T00:42:42.503Z,0.20
2022-12-23T00:45:16.291Z,0.14
2022-12-23T00:48:03.277Z,0.12
2022-12-23T00:50:31.182Z,0.07
2022-12-23T00:52:58.829Z,-0.02
2022-12-23T00:55:26.110Z,0.03
2022-12-23T00:57:55.357Z,0.02
2022-12-23T01:00:42.907Z,-0.01
2022-12-23T01:03:31.810Z,-0.05
2022-12-23T01:05:59.936Z,0.04
2022-12-23T01:08:27.579Z,0.02
2022-12-23T01:10:55.207Z,0.05
2022-12-23T01:13:23.921Z,-0.02
2022-12-23T01:15:51.136Z,0.06
2022-12-23T01:18:18.415Z,0.02
2022-12-23T01:20:45.758Z,-0.03
2022-12-23T01:23:13.184Z,-0.05
2022-12-23T01:25:40.491Z,-0.05
2022-12-23T01:28:07.981Z,-0.12
2022-12-23T01:30:37.546Z,-0.05
2022-12-23T01:33:04.989Z,0.00
2022-12-23T01:35:32.141Z,0.06
2022-12-23T01:37:59.389Z,0.08
2022-12-23T01:40:26.745Z,0.12
2022-12-23T01:42:53.975Z,0.11
2022-12-23T01:45:27.879Z,0.06
2022-12-23T01:47:59.135Z,0.12
2022-12-23T01:50:32.226Z,0.00
2022-12-23T01:53:07.807Z,0.03
2022-12-23T01:55:39.041Z,0.12
2022-12-23T01:58:12.438Z,0.02
2022-12-23T02:01:00.834Z,0.05
2022-12-23T02:03:44.806Z,-0.01
2022-12-23T02:06:38.775Z,-0.20
2022-12-23T02:09:20.071Z,0.07
2022-12-23T02:12:15.014Z,0.10
2022-12-23T02:15:22.795Z,0.06
2022-12-23T02:18:01.878Z,0.05
2022-12-23T02:21:05.242Z,0.00
2022-12-23T02:24:05.647Z,-0.04
2022-12-23T02:27:11.550Z,-0.08
2022-12-23T02:30:22.519Z,-0.06
2022-12-23T02:33:03.731Z,-0.28
2022-12-23T02:35:38.124Z,-0.08
2022-12-23T02:38:12.009Z,-0.03
2022-12-23T02:40:44.813Z,-0.29
2022-12-23T02:43:19.626Z,-0.09
2022-12-23T02:45:54.066Z,-0.08
2022-12-23T02:48:27.737Z,-0.01
2022-12-23T02:50:58.002Z,-0.03
2022-12-23T02:53:29.703Z,-0.19
2022-12-23T02:55:59.386Z,0.05
2022-12-23T02:58:31.669Z,-0.12
2022-12-23T03:01:02.327Z,-0.02
2022-12-23T03:03:29.772Z,0.01
2022-12-23T03:05:57.453Z,0.06
2022-12-23T03:08:27.332Z,0.07
2022-12-23T03:11:06.453Z,0.00
2022-12-23T03:14:01.889Z,0.05
2022-12-23T03:16:38.879Z,0.11
2022-12-23T03:19:16.240Z,0.08
2022-12-23T03:21:48.326Z,0.09
2022-12-23T03:24:24.677Z,0.16
2022-12-23T03:26:57.818Z,0.06
2022-12-23T03:29:29.453Z,0.08
2022-12-23T03:32:01.689Z,0.04
2022-12-23T03:34:32.886Z,-0.14
2022-12-23T03:37:05.654Z,-0.01
2022-12-23T03:39:37.225Z,-0.03
2022-12-23T03:42:09.458Z,0.02
2022-12-23T03:44:51.761Z,0.00
2022-12-23T03:47:36.398Z,0.08
2022-12-23T03:50:08.626Z,0.17
2022-12-23T03:52:40.297Z,0.10
2022-12-23T03:55:12.268Z,0.06
2022-12-23T03:57:44.949Z,0.04
2022-12-23T04:00:12.842Z,0.04
2022-12-23T04:02:52.177Z,0.01
2022-12-23T04:05:25.321Z,-0.05
2022-12-23T04:07:59.141Z,-0.03
2022-12-23T04:10:27.785Z,0.00
2022-12-23T04:12:55.720Z,0.05
2022-12-23T04:15:24.836Z,0.05
2022-12-23T04:17:55.694Z,0.06
2022-12-23T04:20:23.555Z,-0.01
2022-12-23T04:22:50.868Z,0.12
2022-12-23T04:25:18.504Z,0.08
2022-12-23T04:27:45.773Z,0.06
2022-12-23T04:30:14.136Z,0.12
2022-12-23T04:32:42.033Z,0.13
2022-12-23T04:35:11.707Z,0.10
2022-12-23T04:37:39.562Z,0.04
2022-12-23T04:40:07.881Z,0.13
2022-12-23T04:42:35.193Z,0.10
2022-12-23T04:45:02.449Z,0.08
2022-12-23T04:47:31.459Z,0.05
2022-12-23T04:49:58.838Z,0.05
2022-12-23T04:52:27.807Z,0.09
2022-12-23T04:54:55.267Z,0.09
2022-12-23T04:57:22.570Z,0.06
2022-12-23T04:59:50.005Z,0.14
2022-12-23T05:02:17.620Z,0.06
2022-12-23T05:04:44.844Z,0.13
2022-12-23T05:07:12.270Z,0.14
2022-12-23T05:09:40.994Z,0.10
2022-12-23T05:12:08.391Z,0.07
2022-12-23T05:14:39.719Z,0.08
2022-12-23T05:17:07.946Z,0.08
2022-12-23T05:19:36.039Z,0.07
2022-12-23T05:22:03.482Z,0.04
2022-12-23T05:24:30.797Z,0.05
2022-12-23T05:27:00.547Z,0.05
2022-12-23T05:29:28.089Z,0.05
2022-12-23T05:31:55.602Z,-0.06
2022-12-23T05:34:23.027Z,0.01
2022-12-23T05:36:50.294Z,0.01
2022-12-23T05:39:17.725Z,0.05
2022-12-23T05:41:46.012Z,0.10
2022-12-23T05:44:14.876Z,0.08
2022-12-23T05:46:42.158Z,0.09
2022-12-23T05:49:09.499Z,0.03
2022-12-23T05:51:36.979Z,0.03
2022-12-23T05:54:04.477Z,0.02
2022-12-23T05:56:31.804Z,0.02
2022-12-23T05:58:59.417Z,0.03
2022-12-23T06:01:28.305Z,0.08
2022-12-23T06:03:55.811Z,0.06
2022-12-23T06:06:23.188Z,0.00
2022-12-23T06:08:55.778Z,0.06
2022-12-23T06:11:26.673Z,0.09
2022-12-23T06:13:54.311Z,0.10
2022-12-23T06:16:21.781Z,0.11
2022-12-23T06:18:55.059Z,0.05
2022-12-23T06:21:22.844Z,0.12
2022-12-23T06:23:50.239Z,0.06
2022-12-23T06:26:17.547Z,0.11
2022-12-23T06:28:45.105Z,0.09
2022-12-23T06:31:12.487Z,0.10
2022-12-23T06:33:39.910Z,0.09
2022-12-23T06:36:09.728Z,0.07
2022-12-23T06:38:37.069Z,0.03
2022-12-23T06:41:04.754Z,0.06
2022-12-23T06:43:35.579Z,0.13
2022-12-23T06:46:03.053Z,0.14
2022-12-23T06:48:30.432Z,0.12
2022-12-23T06:50:57.904Z,0.18
2022-12-23T06:53:26.627Z,0.14
2022-12-23T06:56:00.100Z,0.09
2022-12-23T06:58:27.341Z,0.15
2022-12-23T07:00:54.667Z,0.12
2022-12-23T07:03:22.278Z,0.14
2022-12-23T07:05:50.465Z,0.18
2022-12-23T07:08:18.033Z,0.23
2022-12-23T07:10:47.400Z,0.20
2022-12-23T07:13:14.693Z,0.17
2022-12-23T07:15:42.160Z,0.20
2022-12-23T07:18:09.724Z,0.20
2022-12-23T07:20:40.058Z,0.22
2022-12-23T07:23:07.969Z,0.19
2022-12-23T07:25:35.347Z,0.21
2022-12-23T07:28:04.452Z,0.23
2022-12-23T07:30:31.708Z,0.23
2022-12-23T07:32:59.398Z,0.20
2022-12-23T07:35:26.753Z,0.25
2022-12-23T07:37:55.655Z,0.26
2022-12-23T07:40:26.594Z,0.35
2022-12-23T07:42:55.859Z,0.28
2022-12-23T07:45:24.560Z,0.34
2022-12-23T07:47:53.703Z,0.25
2022-12-23T07:50:20.993Z,0.31
2022-12-23T07:52:48.289Z,0.30
2022-12-23T07:55:15.952Z,0.35
2022-12-23T07:57:43.517Z,0.30
2022-12-23T08:00:12.678Z,0.29
2022-12-23T08:02:41.975Z,0.34
2022-12-23T08:05:10.141Z,0.30
2022-12-23T08:07:37.666Z,0.35
2022-12-23T08:10:05.495Z,0.32
2022-12-23T08:12:33.395Z,0.32
2022-12-23T08:15:00.860Z,0.35
2022-12-23T08:17:28.964Z,0.25
2022-12-23T08:19:57.863Z,0.30
2022-12-23T08:22:25.446Z,0.30
2022-12-23T08:24:53.342Z,0.31
2022-12-23T08:27:20.591Z,0.31
2022-12-23T08:29:47.877Z,0.35
2022-12-23T08:32:15.228Z,0.25
2022-12-23T08:34:42.586Z,0.26
2022-12-23T08:37:11.548Z,0.38
2022-12-23T08:39:38.857Z,0.35
2022-12-23T08:42:06.199Z,0.34
2022-12-23T08:44:33.488Z,0.25
2022-12-23T08:47:00.896Z,0.31
2022-12-23T08:49:28.310Z,0.39
2022-12-23T08:51:55.625Z,0.36
2022-12-23T08:54:25.288Z,0.33
2022-12-23T08:56:52.623Z,0.30
2022-12-23T08:59:20.170Z,0.27
2022-12-23T09:01:48.175Z,0.30
2022-12-23T09:04:16.075Z,0.31
2022-12-23T09:06:44.178Z,0.37
2022-12-23T09:09:14.695Z,0.31
2022-12-23T09:11:43.816Z,0.36
2022-12-23T09:14:12.225Z,0.40
2022-12-23T09:16:40.483Z,0.36
2022-12-23T09:19:08.142Z,0.35
2022-12-23T09:21:36.831Z,0.07
2022-12-23T09:24:04.923Z,0.30
2022-12-23T09:26:32.561Z,0.25
2022-12-23T09:29:01.496Z,0.32
2022-12-23T09:31:36.096Z,0.31
2022-12-23T09:34:05.564Z,0.35
2022-12-23T09:36:32.840Z,0.37
2022-12-23T09:39:00.134Z,0.39
2022-12-23T09:41:40.700Z,0.37
2022-12-23T09:44:26.777Z,0.38
2022-12-23T09:46:57.205Z,0.35
2022-12-23T09:49:24.598Z,0.40
2022-12-23T09:51:55.918Z,0.25
2022-12-23T09:54:25.359Z,0.43
2022-12-23T09:56:55.161Z,0.44
2022-12-23T09:59:37.705Z,0.38
2022-12-23T10:02:21.964Z,0.42
2022-12-23T10:05:00.388Z,0.43
2022-12-23T10:07:33.222Z,0.39
2022-12-23T10:10:07.553Z,0.41
2022-12-23T10:12:40.228Z,0.10
2022-12-23T10:15:21.720Z,0.42
2022-12-23T10:17:53.128Z,0.39
2022-12-23T10:20:36.452Z,0.39
2022-12-23T10:23:08.973Z,0.45
2022-12-23T10:25:41.441Z,0.48
2022-12-23T10:28:10.137Z,0.49
2022-12-23T10:31:05.772Z,0.51
2022-12-23T10:33:43.696Z,0.50
2022-12-23T10:36:18.233Z,0.52
2022-12-23T10:38:53.884Z,0.52
2022-12-23T10:41:32.254Z,0.46
2022-12-23T10:44:25.421Z,0.51
2022-12-23T10:47:07.270Z,0.51
2022-12-23T10:49:46.704Z,0.53
2022-12-23T10:52:19.576Z,0.54
2022-12-23T10:54:48.452Z,0.53
2022-12-23T10:57:17.703Z,0.50
2022-12-23T10:59:45.933Z,0.56
2022-12-23T11:02:49.476Z,0.49
2022-12-23T11:05:22.632Z,0.62
2022-12-23T11:07:49.931Z,0.64
2022-12-23T11:10:19.613Z,0.64
2022-12-23T11:12:48.989Z,0.60
2022-12-23T11:15:28.430Z,0.68
2022-12-23T11:18:02.396Z,0.62
2022-12-23T11:20:30.521Z,0.38
2022-12-23T11:23:01.855Z,0.58
2022-12-23T11:25:32.984Z,0.61
2022-12-23T11:28:04.094Z,0.57
2022-12-23T11:30:33.190Z,0.56
2022-12-23T11:33:01.869Z,0.56
2022-12-23T11:35:31.935Z,0.55
2022-12-23T11:38:02.023Z,0.48
2022-12-23T11:40:32.183Z,0.60
2022-12-23T11:43:02.148Z,0.56
2022-12-23T11:45:32.218Z,0.57
2022-12-23T11:47:59.528Z,0.57
2022-12-23T11:50:35.023Z,0.55
2022-12-23T11:53:11.759Z,0.52
2022-12-23T11:55:46.657Z,0.48
2022-12-23T11:58:21.529Z,0.50
2022-12-23T12:00:56.003Z,0.53
2022-12-23T12:03:27.753Z,0.52
2022-12-23T12:05:59.272Z,0.35
2022-12-23T12:08:34.343Z,0.55
2022-12-23T12:11:06.075Z,0.57
2022-12-23T12:13:38.425Z,0.43
2022-12-23T12:16:22.762Z,0.51
2022-12-23T12:18:55.755Z,0.15
2022-12-23T12:21:29.480Z,0.49
2022-12-23T12:24:20.040Z,0.44
2022-12-23T12:26:51.413Z,0.45
2022-12-23T12:29:25.531Z,0.41
2022-12-23T12:31:55.315Z,0.46
2022-12-23T12:34:34.092Z,0.44
2022-12-23T12:37:13.211Z,0.26
2022-12-23T12:39:43.493Z,0.35
2022-12-23T12:42:16.000Z,0.37
2022-12-23T12:44:52.632Z,0.48
2022-12-23T12:50:18.397Z,0.46
2022-12-23T12:52:47.308Z,0.43
2022-12-23T12:55:21.426Z,0.48
2022-12-23T12:57:48.867Z,0.49
2022-12-23T13:00:18.768Z,0.51
2022-12-23T13:03:21.206Z,0.52
2022-12-23T13:06:00.143Z,0.50
2022-12-23T13:08:55.564Z,0.53
2022-12-23T13:11:32.931Z,0.57
2022-12-23T13:14:08.292Z,0.54
2022-12-23T13:16:46.923Z,0.51
2022-12-23T13:19:23.621Z,0.53
2022-12-23T13:21:56.173Z,0.53
2022-12-23T13:24:31.080Z,0.57
2022-12-23T13:27:07.758Z,0.53
2022-12-23T13:29:57.983Z,0.54
2022-12-23T13:32:54.190Z,0.45
2022-12-23T13:35:34.774Z,0.55
2022-12-23T13:38:15.283Z,0.65
2022-12-23T13:40:49.276Z,0.62
2022-12-23T13:43:20.575Z,0.42
2022-12-23T13:45:50.685Z,0.60
2022-12-23T13:48:33.926Z,0.49
2022-12-23T13:51:10.373Z,0.47
2022-12-23T13:53:50.634Z,0.62
2022-12-23T13:56:27.351Z,0.56
2022-12-23T13:59:09.292Z,0.43
2022-12-23T14:01:55.562Z,0.34
2022-12-23T14:04:32.254Z,0.49
2022-12-23T14:07:20.168Z,0.54
2022-12-23T14:09:56.070Z,0.56
2022-12-23T14:12:37.580Z,0.50
2022-12-23T14:15:28.273Z,0.61
2022-12-23T14:18:09.730Z,0.56
2022-12-23T14:20:47.954Z,0.49
2022-12-23T14:23:28.767Z,0.60
2022-12-23T14:26:19.321Z,0.63
2022-12-23T14:29:04.085Z,0.66
2022-12-23T14:31:37.500Z,0.70
2022-12-23T14:34:07.750Z,0.64
2022-12-23T14:36:35.338Z,0.71
2022-12-23T14:39:37.870Z,0.74
2022-12-23T14:42:07.594Z,0.70
2022-12-23T14:44:48.975Z,0.67
2022-12-23T14:47:40.388Z,0.62
2022-12-23T14:50:38.461Z,0.56
2022-12-23T14:53:21.142Z,0.55
2022-12-23T14:55:51.197Z,0.56
2022-12-23T14:59:03.418Z,0.56
2022-12-23T15:01:36.996Z,0.62
2022-12-23T15:04:16.087Z,0.57
2022-12-23T15:06:46.582Z,0.60
2022-12-23T15:09:25.311Z,0.58
2022-12-23T15:11:54.754Z,0.53
2022-12-23T15:14:31.627Z,0.50
2022-12-23T15:17:14.033Z,0.51
2022-12-23T15:19:47.355Z,0.39
2022-12-23T15:22:23.829Z,0.47
2022-12-23T15:24:55.925Z,0.41
2022-12-23T15:27:28.707Z,0.54
2022-12-23T15:29:57.965Z,0.53
2022-12-23T15:32:28.835Z,0.46
2022-12-23T15:35:01.725Z,0.47
2022-12-23T15:37:32.506Z,0.51
2022-12-23T15:40:12.139Z,0.53
2022-12-23T15:42:47.613Z,0.48
2022-12-23T15:45:33.053Z,0.04
2022-12-23T15:48:05.122Z,0.54
2022-12-23T15:50:41.608Z,0.58
2022-12-23T15:53:10.816Z,0.09
2022-12-23T15:55:41.439Z,0.53
2022-12-23T15:58:18.490Z,0.37
2022-12-23T16:00:53.164Z,0.31
2022-12-23T16:03:28.113Z,0.47
2022-12-23T16:06:06.202Z,0.36
2022-12-23T16:08:34.131Z,0.45
2022-12-23T16:11:12.175Z,0.58
2022-12-23T16:13:44.920Z,0.57
2022-12-23T16:16:31.355Z,0.69
2022-12-23T16:19:00.792Z,0.68
2022-12-23T16:21:31.281Z,0.61
2022-12-23T16:23:59.908Z,0.60
2022-12-23T16:26:27.401Z,0.62
2022-12-23T16:28:58.359Z,0.15
2022-12-23T16:31:25.945Z,0.70
2022-12-23T16:33:55.779Z,0.72
2022-12-23T16:36:35.023Z,0.75
2022-12-23T16:39:17.208Z,0.69
2022-12-23T16:41:44.496Z,0.73
2022-12-23T16:44:11.696Z,0.77
2022-12-23T16:46:43.005Z,0.59
2022-12-23T16:49:15.068Z,0.57
2022-12-23T16:51:44.046Z,0.74
2022-12-23T16:54:15.445Z,0.73
2022-12-23T16:56:43.225Z,0.74
2022-12-23T16:59:10.776Z,0.76
2022-12-23T17:01:42.287Z,0.74
2022-12-23T17:04:09.638Z,0.82
2022-12-23T17:06:37.908Z,0.79
2022-12-23T17:09:08.175Z,0.86
2022-12-23T17:11:38.620Z,0.96
2022-12-23T17:14:15.248Z,0.86
2022-12-23T17:16:43.361Z,0.86
2022-12-23T17:19:11.502Z,0.88
2022-12-23T17:21:39.893Z,0.69
2022-12-23T17:24:13.078Z,0.73
2022-12-23T17:26:40.608Z,0.84
2022-12-23T17:29:09.963Z,0.82
2022-12-23T17:31:37.458Z,0.85
2022-12-23T17:34:04.683Z,0.74
2022-12-23T17:36:31.969Z,0.83
2022-12-23T17:38:59.154Z,0.90
2022-12-23T17:41:31.260Z,0.80
2022-12-23T17:43:59.393Z,0.84
2022-12-23T17:46:27.267Z,0.86
2022-12-23T17:48:54.693Z,0.87
2022-12-23T17:51:23.252Z,0.79
2022-12-23T17:53:57.377Z,0.95
2022-12-23T17:56:29.123Z,0.92
2022-12-23T17:58:56.477Z,0.96
2022-12-23T18:01:26.219Z,0.89
2022-12-23T18:03:53.969Z,0.93
2022-12-23T18:06:22.835Z,0.90
2022-12-23T18:08:50.519Z,0.93
2022-12-23T18:11:47.749Z,0.63
2022-12-23T18:14:32.919Z,0.82
2022-12-23T18:17:09.487Z,0.95
2022-12-23T18:19:36.944Z,0.92
2022-12-23T18:22:04.483Z,0.95
2022-12-23T18:24:31.883Z,0.95
2022-12-23T18:27:00.839Z,0.96
2022-12-23T18:29:31.420Z,0.92
2022-12-23T18:31:58.805Z,0.96
2022-12-23T18:34:26.421Z,0.98
2022-12-23T18:36:55.745Z,0.97
2022-12-23T18:39:23.617Z,0.97
2022-12-23T18:41:51.027Z,0.61
2022-12-23T18:44:23.539Z,0.83
2022-12-23T18:46:51.174Z,0.90
2022-12-23T18:49:19.406Z,0.95
2022-12-23T18:51:47.850Z,1.02
2022-12-23T18:54:42.179Z,1.00
2022-12-23T18:57:28.278Z,0.59
2022-12-23T18:59:57.681Z,1.05
2022-12-23T19:02:25.049Z,1.00
2022-12-23T19:04:54.684Z,0.99
2022-12-23T19:07:22.039Z,1.13
2022-12-23T19:09:49.466Z,0.97
2022-12-23T19:12:16.986Z,1.07
2022-12-23T19:14:44.196Z,1.13
2022-12-23T19:17:12.853Z,1.06
2022-12-23T19:19:40.178Z,1.20
2022-12-23T19:22:07.513Z,1.22
2022-12-23T19:24:34.867Z,1.23
2022-12-23T19:27:02.172Z,1.01
2022-12-23T19:29:39.064Z,1.03
2022-12-23T19:32:06.408Z,1.21
2022-12-23T19:34:35.257Z,1.25
2022-12-23T19:37:02.597Z,1.14
2022-12-23T19:39:30.180Z,1.13
2022-12-23T19:41:57.433Z,1.17
2022-12-23T19:44:24.634Z,1.10
2022-12-23T19:46:52.086Z,1.16
2022-12-23T19:49:20.321Z,1.19
2022-12-23T19:51:49.645Z,1.26
2022-12-23T19:54:21.443Z,1.17
2022-12-23T19:57:14.408Z,0.98
2022-12-23T19:59:43.959Z,0.80
2022-12-23T20:02:14.429Z,1.21
2022-12-23T20:04:42.620Z,1.16
2022-12-23T20:07:11.492Z,1.09
2022-12-23T20:09:39.234Z,1.28
2022-12-23T20:12:06.872Z,1.07
2022-12-23T20:14:37.157Z,1.23
2022-12-23T20:17:04.494Z,1.22
2022-12-23T20:19:31.897Z,1.12
2022-12-23T20:21:59.567Z,1.23
2022-12-23T20:24:28.555Z,1.08
2022-12-23T20:26:56.092Z,1.05
2022-12-23T20:29:23.618Z,1.14
2022-12-23T20:31:51.149Z,1.17
2022-12-23T20:34:19.059Z,1.15
2022-12-23T20:37:07.548Z,1.15
2022-12-23T20:39:39.700Z,1.00
2022-12-23T20:42:07.059Z,1.17
2022-12-23T20:44:36.639Z,1.10
2022-12-23T20:47:04.984Z,1.10
2022-12-23T20:49:32.560Z,1.14
2022-12-23T20:52:00.120Z,1.09
2022-12-23T20:54:32.599Z,0.91
2022-12-23T20:57:02.957Z,1.02
2022-12-23T20:59:30.303Z,1.02
2022-12-23T21:01:59.481Z,1.05
2022-12-23T21:04:27.531Z,1.03
2022-12-23T21:06:55.004Z,1.17
2022-12-23T21:09:22.270Z,1.08
2022-12-23T21:11:49.640Z,1.22
2022-12-23T21:14:18.279Z,1.11
2022-12-23T21:16:45.815Z,1.08
2022-12-23T21:19:19.638Z,1.04
2022-12-23T21:21:47.802Z,1.11
2022-12-23T21:24:17.872Z,1.11
2022-12-23T21:26:55.584Z,1.12
2022-12-23T21:29:26.593Z,1.09
2022-12-23T21:31:55.297Z,1.05
2022-12-23T21:34:22.995Z,0.86
2022-12-23T21:36:50.283Z,1.08
2022-12-23T21:39:17.628Z,1.08
2022-12-23T21:41:46.072Z,1.13
2022-12-23T21:44:16.494Z,1.13
2022-12-23T21:46:45.322Z,1.14
2022-12-23T21:49:13.036Z,1.12
2022-12-23T21:51:41.569Z,1.14
2022-12-23T21:54:10.284Z,1.16
2022-12-23T21:56:37.985Z,1.15
2022-12-23T21:59:13.753Z,1.12
2022-12-23T22:01:42.166Z,1.12
2022-12-23T22:04:11.089Z,1.08
2022-12-23T22:06:40.391Z,1.13
2022-12-23T22:09:08.560Z,1.16
2022-12-23T22:11:37.071Z,1.05
2022-12-23T22:14:06.542Z,1.13
2022-12-23T22:16:35.263Z,1.10
2022-12-23T22:19:04.273Z,1.10
2022-12-23T22:21:33.850Z,1.10
2022-12-23T22:24:02.359Z,1.09
2022-12-23T22:26:32.428Z,1.19
2022-12-23T22:29:01.425Z,1.23
2022-12-23T22:31:32.969Z,1.29
2022-12-23T22:34:00.695Z,1.30
2022-12-23T22:36:29.322Z,1.07
2022-12-23T22:38:59.315Z,1.21
2022-12-23T22:41:30.587Z,1.17
2022-12-23T22:43:59.063Z,1.07
2022-12-23T22:46:26.934Z,1.16
2022-12-23T22:48:54.518Z,1.21
2022-12-23T22:51:23.754Z,1.13
2022-12-23T22:53:51.073Z,1.13
2022-12-23T22:56:21.391Z,1.17
2022-12-23T22:58:49.830Z,1.05
2022-12-23T23:01:23.016Z,1.03
2022-12-23T23:03:57.085Z,1.15
2022-12-23T23:06:25.883Z,1.10
2022-12-23T23:08:53.493Z,1.06
2022-12-23T23:11:22.694Z,1.14
2022-12-23T23:13:50.024Z,1.11
2022-12-23T23:16:17.562Z,1.17
2022-12-23T23:18:47.384Z,1.12
2022-12-23T23:21:15.406Z,1.19
2022-12-23T23:23:42.817Z,1.10
2022-12-23T23:26:10.687Z,1.08
2022-12-23T23:28:40.003Z,1.17
2022-12-23T23:33:57.910Z,1.07
2022-12-23T23:36:25.528Z,1.13
2022-12-23T23:38:53.094Z,1.14
2022-12-23T23:41:23.268Z,1.04
2022-12-23T23:43:52.885Z,1.03
2022-12-23T23:46:20.352Z,1.08
2022-12-23T23:48:48.060Z,1.02
2022-12-23T23:51:15.588Z,1.05
2022-12-23T23:53:43.147Z,1.00
2022-12-23T23:56:10.794Z,1.05
2022-12-23T23:58:38.366Z,1.02
